createdAt,value
2019-04-22T00:01:58.193Z,7.20
2019-04-22T00:04:33.840Z,7.10
2019-04-22T00:07:18.503Z,7.00
2019-04-22T00:09:45.757Z,6.90
2019-04-22T00:12:22.200Z,6.80
2019-04-22T00:14:43.874Z,6.80
2019-04-22T00:17:24.790Z,6.80
2019-04-22T00:19:55.835Z,6.80
2019-04-22T00:22:22.254Z,6.80
2019-04-22T00:24:53.906Z,6.80
2019-04-22T00:27:28.164Z,6.80
2019-04-22T00:29:59.367Z,6.80
2019-04-22T00:32:42.075Z,6.80
2019-04-22T00:35:13.037Z,6.80
2019-04-22T00:37:49.291Z,6.80
2019-04-22T00:40:21.297Z,6.80
2019-04-22T00:42:47.657Z,6.80
2019-04-22T00:45:19.328Z,6.80
2019-04-22T00:47:43.640Z,6.80
2019-04-22T00:50:20.362Z,6.80
2019-04-22T00:52:52.568Z,6.80
2019-04-22T00:55:37.871Z,6.80
2019-04-22T00:58:08.267Z,6.70
2019-04-22T01:00:44.296Z,6.70
2019-04-22T01:03:21.433Z,6.70
2019-04-22T01:05:43.751Z,6.70
2019-04-22T01:08:15.084Z,6.60
2019-04-22T01:10:47.875Z,6.60
2019-04-22T01:13:13.841Z,6.60
2019-04-22T01:15:54.171Z,6.60
2019-04-22T01:18:13.590Z,6.60
2019-04-22T01:21:00.659Z,6.50
2019-04-22T01:23:13.038Z,6.50
2019-04-22T01:25:42.198Z,6.50
2019-04-22T01:28:06.422Z,6.50
2019-04-22T01:30:30.408Z,6.50
2019-04-22T01:32:57.935Z,6.50
2019-04-22T01:35:37.480Z,6.50
2019-04-22T01:38:07.823Z,6.50
2019-04-22T01:40:52.839Z,6.50
2019-04-22T01:43:28.264Z,6.50
2019-04-22T01:45:53.191Z,6.50
2019-04-22T01:48:22.826Z,6.60
2019-04-22T01:50:49.705Z,6.50
2019-04-22T01:53:21.373Z,6.50
2019-04-22T01:55:54.737Z,6.50
2019-04-22T01:58:21.493Z,6.50
2019-04-22T02:00:53.486Z,6.50
2019-04-22T02:03:17.528Z,6.50
2019-04-22T02:05:55.970Z,6.50
2019-04-22T02:08:33.102Z,6.60
2019-04-22T02:11:07.821Z,6.60
2019-04-22T02:13:21.427Z,6.60
2019-04-22T02:21:00.148Z,6.70
2019-04-22T02:23:45.831Z,6.70
2019-04-22T02:34:09.317Z,6.80
2019-04-22T02:36:29.768Z,6.80
2019-04-22T02:44:08.272Z,6.80
2019-04-22T02:46:46.830Z,6.80
2019-04-22T02:49:11.683Z,6.80
2019-04-22T02:51:32.753Z,6.80
2019-04-22T02:59:12.483Z,6.90
2019-04-22T03:04:31.890Z,6.90
2019-04-22T03:06:43.484Z,6.90
2019-04-22T03:09:23.593Z,7.00
2019-04-22T03:12:02.533Z,6.90
2019-04-22T03:14:22.401Z,6.90
2019-04-22T03:16:50.351Z,7.00
2019-04-22T03:19:36.654Z,6.90
2019-04-22T03:22:00.480Z,6.90
2019-04-22T03:24:29.490Z,6.90
2019-04-22T03:26:58.971Z,6.80
2019-04-22T03:40:16.368Z,6.90
2019-04-22T03:42:54.254Z,6.90
2019-04-22T03:45:25.861Z,6.80
2019-04-22T03:47:54.101Z,6.80
2019-04-22T03:52:39.112Z,6.80
2019-04-22T03:55:10.288Z,6.80
2019-04-22T03:57:56.039Z,6.70
2019-04-22T04:00:19.932Z,6.70
2019-04-22T04:02:45.835Z,6.60
2019-04-22T04:05:29.584Z,6.60
2019-04-22T04:17:51.466Z,6.60
2019-04-22T04:20:36.901Z,6.60
2019-04-22T04:23:04.833Z,6.70
2019-04-22T04:30:30.025Z,6.70
2019-04-22T04:40:28.119Z,6.80
2019-04-22T04:42:56.627Z,6.90
2019-04-22T04:47:55.266Z,7.00
2019-04-22T04:53:19.087Z,7.10
2019-04-22T04:58:06.079Z,7.30
2019-04-22T05:07:53.604Z,7.50
2019-04-22T05:12:57.416Z,7.70
2019-04-22T05:15:23.233Z,7.70
2019-04-22T05:17:58.060Z,7.80
2019-04-22T05:20:38.653Z,7.80
2019-04-22T05:22:51.579Z,7.90
2019-04-22T05:25:24.915Z,8.00
2019-04-22T05:27:50.954Z,8.10
2019-04-22T05:30:28.667Z,8.10
2019-04-22T05:35:26.246Z,8.30
2019-04-22T05:37:56.546Z,8.30
2019-04-22T05:40:22.965Z,8.40
2019-04-22T05:42:56.449Z,8.40
2019-04-22T05:50:37.278Z,8.60
2019-04-22T05:52:57.277Z,8.70
2019-04-22T05:55:30.544Z,8.80
2019-04-22T05:57:59.067Z,8.80
2019-04-22T06:03:08.523Z,9.00
2019-04-22T06:05:33.201Z,9.10
2019-04-22T06:08:02.098Z,9.20
2019-04-22T06:10:37.343Z,9.20
2019-04-22T06:12:59.240Z,9.30
2019-04-22T06:15:36.149Z,9.40
2019-04-22T06:21:04.230Z,9.60
2019-04-22T06:23:34.561Z,9.60
2019-04-22T06:28:34.852Z,9.70
2019-04-22T06:31:02.589Z,9.80
2019-04-22T06:33:34.590Z,9.90
2019-04-22T06:36:03.399Z,10.00
2019-04-22T06:41:04.231Z,10.10
2019-04-22T06:46:02.170Z,10.20
2019-04-22T06:48:30.056Z,10.20
2019-04-22T06:51:00.107Z,10.30
2019-04-22T06:53:34.415Z,10.40
2019-04-22T06:55:59.915Z,10.50
2019-04-22T06:58:28.601Z,10.60
2019-04-22T07:01:04.448Z,10.70
2019-04-22T07:06:19.847Z,10.90
2019-04-22T07:11:14.224Z,11.00
2019-04-22T07:13:34.391Z,11.10
2019-04-22T07:16:03.971Z,11.20
2019-04-22T07:18:35.967Z,11.30
2019-04-22T07:21:06.508Z,11.40
2019-04-22T07:24:02.747Z,11.50
2019-04-22T07:26:11.851Z,11.60
2019-04-22T07:28:29.148Z,11.70
2019-04-22T07:31:10.323Z,11.80
2019-04-22T07:36:30.926Z,12.00
2019-04-22T07:39:01.593Z,12.00
2019-04-22T07:41:14.712Z,12.10
2019-04-22T07:43:59.701Z,12.20
2019-04-22T07:46:13.417Z,12.30
2019-04-22T07:48:45.174Z,12.30
2019-04-22T07:51:15.559Z,12.40
2019-04-22T07:53:39.429Z,12.50
2019-04-22T07:56:13.089Z,12.60
2019-04-22T07:58:45.827Z,12.70
2019-04-22T08:01:14.101Z,12.70
2019-04-22T08:04:00.154Z,12.80
2019-04-22T08:06:18.601Z,12.80
2019-04-22T08:08:46.411Z,12.90
2019-04-22T08:11:35.135Z,13.00
2019-04-22T08:13:58.967Z,13.10
2019-04-22T08:16:16.826Z,13.20
2019-04-22T08:18:45.679Z,13.30
2019-04-22T08:21:17.821Z,13.40
2019-04-22T08:23:54.104Z,13.40
2019-04-22T08:26:25.137Z,13.50
2019-04-22T08:31:20.380Z,13.70
2019-04-22T08:33:49.232Z,13.70
2019-04-22T08:36:21.373Z,13.80
2019-04-22T08:38:52.852Z,13.90
2019-04-22T08:41:28.915Z,13.90
2019-04-22T08:43:57.706Z,13.80
2019-04-22T08:46:30.172Z,13.90
2019-04-22T08:48:56.721Z,14.10
2019-04-22T08:51:25.353Z,14.00
2019-04-22T08:54:00.418Z,14.00
2019-04-22T08:59:04.739Z,14.00
2019-04-22T09:01:27.065Z,13.90
2019-04-22T09:03:58.073Z,14.00
2019-04-22T09:06:47.941Z,14.20
2019-04-22T09:09:02.037Z,14.10
2019-04-22T09:11:35.477Z,14.10
2019-04-22T09:14:02.975Z,14.10
2019-04-22T09:16:31.838Z,14.20
2019-04-22T09:19:02.585Z,14.20
2019-04-22T09:21:45.596Z,14.30
2019-04-22T09:26:30.990Z,14.30
2019-04-22T09:31:39.158Z,14.50
2019-04-22T09:33:53.254Z,14.60
2019-04-22T09:39:00.773Z,14.60
2019-04-22T09:41:31.520Z,14.70
2019-04-22T09:46:39.038Z,14.80
2019-04-22T09:49:09.686Z,14.90
2019-04-22T09:51:30.827Z,14.80
2019-04-22T09:54:10.677Z,15.00
2019-04-22T09:56:41.815Z,15.20
2019-04-22T09:59:02.614Z,15.10
2019-04-22T10:01:56.894Z,15.00
2019-04-22T10:04:06.479Z,15.30
2019-04-22T10:06:34.015Z,15.50
2019-04-22T10:11:37.689Z,15.50
2019-04-22T10:14:07.397Z,15.40
2019-04-22T10:16:39.445Z,15.30
2019-04-22T10:19:04.343Z,15.30
2019-04-22T10:26:39.530Z,15.30
2019-04-22T10:29:10.752Z,15.30
2019-04-22T10:33:56.035Z,15.30
2019-04-22T10:36:13.167Z,15.40
2019-04-22T10:38:42.219Z,15.50
2019-04-22T10:41:12.230Z,15.60
2019-04-22T10:43:41.290Z,15.70
2019-04-22T10:46:10.570Z,15.60
2019-04-22T10:48:40.121Z,15.60
2019-04-22T10:51:08.735Z,15.60
2019-04-22T10:53:37.593Z,15.70
2019-04-22T10:56:07.228Z,15.80
2019-04-22T10:58:35.723Z,16.00
2019-04-22T11:01:05.433Z,15.80
2019-04-22T11:03:35.207Z,15.90
2019-04-22T11:06:05.490Z,15.90
2019-04-22T11:08:44.522Z,16.10
2019-04-22T11:11:18.967Z,16.10
2019-04-22T11:13:35.965Z,16.00
2019-04-22T11:16:05.564Z,15.90
2019-04-22T11:18:35.691Z,15.90
2019-04-22T11:21:05.372Z,15.90
2019-04-22T11:23:34.429Z,15.80
2019-04-22T11:26:03.920Z,15.90
2019-04-22T11:28:33.893Z,15.80
2019-04-22T11:31:02.729Z,15.80
2019-04-22T11:33:32.280Z,15.90
2019-04-22T11:36:02.022Z,15.90
2019-04-22T11:38:31.050Z,16.00
2019-04-22T11:41:01.379Z,16.00
2019-04-22T11:43:30.462Z,15.90
2019-04-22T11:45:59.563Z,15.90
2019-04-22T11:48:35.939Z,15.90
2019-04-22T11:51:06.108Z,16.00
2019-04-22T11:53:34.795Z,16.00
2019-04-22T11:56:04.640Z,15.90
2019-04-22T11:58:33.871Z,15.80
2019-04-22T12:01:06.589Z,15.80
2019-04-22T12:03:38.006Z,16.00
2019-04-22T12:06:10.264Z,16.00
2019-04-22T12:08:39.652Z,15.80
2019-04-22T12:11:09.825Z,15.80
2019-04-22T12:13:39.940Z,15.70
2019-04-22T12:16:09.421Z,15.80
2019-04-22T12:18:39.506Z,15.90
2019-04-22T12:21:08.948Z,16.00
2019-04-22T12:23:39.088Z,16.10
2019-04-22T12:26:13.083Z,15.90
2019-04-22T12:28:39.260Z,15.90
2019-04-22T12:31:09.252Z,16.00
2019-04-22T12:33:39.301Z,15.90
2019-04-22T12:36:10.946Z,15.80
2019-04-22T12:38:39.997Z,15.90
2019-04-22T12:41:11.997Z,15.80
2019-04-22T12:43:39.002Z,15.80
2019-04-22T12:46:08.034Z,15.90
2019-04-22T12:48:37.085Z,15.90
2019-04-22T12:51:07.019Z,15.90
2019-04-22T12:53:36.150Z,16.00
2019-04-22T12:56:05.152Z,16.00
2019-04-22T12:58:34.030Z,16.00
2019-04-22T13:01:03.289Z,15.90
2019-04-22T13:03:32.076Z,15.90
2019-04-22T13:06:01.605Z,15.80
2019-04-22T13:08:31.630Z,15.90
2019-04-22T13:11:07.952Z,15.90
2019-04-22T13:13:31.361Z,15.90
2019-04-22T13:16:00.056Z,15.90
2019-04-22T13:18:37.391Z,16.00
2019-04-22T13:21:00.218Z,15.90
2019-04-22T13:23:29.847Z,15.80
2019-04-22T13:25:59.020Z,16.00
2019-04-22T13:28:29.171Z,15.80
2019-04-22T13:31:01.398Z,15.80
2019-04-22T13:33:28.678Z,15.90
2019-04-22T13:35:59.625Z,15.80
2019-04-22T13:38:29.713Z,15.80
2019-04-22T13:41:12.762Z,15.80
2019-04-22T13:43:31.197Z,15.70
2019-04-22T13:46:00.083Z,15.70
2019-04-22T13:48:52.768Z,15.80
2019-04-22T13:51:30.174Z,15.80
2019-04-22T13:54:30.180Z,15.70
2019-04-22T13:56:24.412Z,15.60
2019-04-22T13:58:44.898Z,15.70
2019-04-22T14:01:07.573Z,15.60
2019-04-22T14:06:38.830Z,15.90
2019-04-22T14:09:09.554Z,16.00
2019-04-22T14:11:47.450Z,15.90
2019-04-22T14:14:09.205Z,15.80
2019-04-22T14:16:37.863Z,15.70
2019-04-22T14:19:07.827Z,15.70
2019-04-22T14:21:36.928Z,15.60
2019-04-22T14:24:07.334Z,15.70
2019-04-22T14:26:52.780Z,15.70
2019-04-22T14:29:07.876Z,15.80
2019-04-22T14:31:38.206Z,16.10
2019-04-22T14:34:11.616Z,16.30
2019-04-22T14:36:41.377Z,17.00
2019-04-22T14:39:10.362Z,17.20
2019-04-22T14:41:54.752Z,18.10
2019-04-22T14:47:11.223Z,18.70
2019-04-22T14:49:29.862Z,19.30
2019-04-22T14:52:10.769Z,19.40
2019-04-22T14:54:28.336Z,19.60
2019-04-22T14:56:40.548Z,19.50
2019-04-22T14:59:09.317Z,19.60
2019-04-22T15:01:40.126Z,19.60
2019-04-22T15:04:08.957Z,19.90
2019-04-22T15:06:38.020Z,20.10
2019-04-22T15:09:08.406Z,19.70
2019-04-22T15:11:52.558Z,20.00
2019-04-22T15:14:07.710Z,20.60
2019-04-22T15:16:40.751Z,20.40
2019-04-22T15:19:11.741Z,20.90
2019-04-22T15:21:40.969Z,20.80
2019-04-22T15:24:14.267Z,20.60
2019-04-22T15:26:42.829Z,20.70
2019-04-22T15:29:11.429Z,20.90
2019-04-22T15:31:40.084Z,20.80
2019-04-22T15:34:10.250Z,21.00
2019-04-22T15:36:40.042Z,21.20
2019-04-22T15:39:09.343Z,20.80
2019-04-22T15:42:11.337Z,20.80
2019-04-22T15:44:30.448Z,20.60
2019-04-22T15:47:00.705Z,20.70
2019-04-22T15:49:29.790Z,20.30
2019-04-22T15:52:00.787Z,19.70
2019-04-22T15:54:29.818Z,19.50
2019-04-22T15:56:59.045Z,19.10
2019-04-22T15:59:45.064Z,18.00
2019-04-22T16:02:00.208Z,17.90
2019-04-22T16:04:28.538Z,17.40
2019-04-22T16:06:59.048Z,16.90
2019-04-22T16:09:29.008Z,16.40
2019-04-22T16:12:09.971Z,16.20
2019-04-22T16:14:36.598Z,15.90
2019-04-22T16:16:58.916Z,15.70
2019-04-22T16:19:27.588Z,15.70
2019-04-22T16:22:03.104Z,15.50
2019-04-22T16:24:31.986Z,15.40
2019-04-22T16:27:02.659Z,15.30
2019-04-22T16:29:31.538Z,15.00
2019-04-22T16:32:01.189Z,15.00
2019-04-22T16:34:31.282Z,14.80
2019-04-22T16:37:00.853Z,14.70
2019-04-22T16:39:30.937Z,14.70
2019-04-22T16:42:00.639Z,14.50
2019-04-22T16:44:30.380Z,14.50
2019-04-22T16:46:59.552Z,14.30
2019-04-22T16:49:29.696Z,14.30
2019-04-22T16:51:58.555Z,14.30
2019-04-22T16:54:27.833Z,14.10
2019-04-22T16:56:57.578Z,14.10
2019-04-22T16:59:26.757Z,14.30
2019-04-22T17:02:06.426Z,14.30
2019-04-22T17:04:43.057Z,14.30
2019-04-22T17:07:13.916Z,14.00
2019-04-22T17:09:43.921Z,13.90
2019-04-22T17:12:13.875Z,13.80
2019-04-22T17:14:50.419Z,13.80
2019-04-22T17:17:12.918Z,13.90
2019-04-22T17:19:41.715Z,14.10
2019-04-22T17:22:11.431Z,14.40
2019-04-22T17:24:41.491Z,14.20
2019-04-22T17:27:10.690Z,14.00
2019-04-22T17:29:40.907Z,14.00
2019-04-22T17:32:14.015Z,14.10
2019-04-22T17:34:41.238Z,13.80
2019-04-22T17:37:14.290Z,13.70
2019-04-22T17:39:49.075Z,13.50
2019-04-22T17:42:29.282Z,13.50
2019-04-22T17:45:20.673Z,13.40
2019-04-22T17:47:48.166Z,13.30
2019-04-22T17:50:27.524Z,13.10
2019-04-22T17:53:08.737Z,13.00
2019-04-22T17:55:31.637Z,12.70
2019-04-22T17:57:59.591Z,12.60
2019-04-22T18:00:29.789Z,12.50
2019-04-22T18:02:57.388Z,12.40
2019-04-22T18:05:18.271Z,12.10
2019-04-22T18:08:08.448Z,11.90
2019-04-22T18:10:36.029Z,11.70
2019-04-22T18:13:14.386Z,11.50
2019-04-22T18:15:40.573Z,11.40
2019-04-22T18:18:12.974Z,11.30
2019-04-22T18:20:52.152Z,11.20
2019-04-22T18:23:14.059Z,11.00
2019-04-22T18:25:57.341Z,10.90
2019-04-22T18:28:31.738Z,10.80
2019-04-22T18:30:57.070Z,10.70
2019-04-22T18:33:28.960Z,10.60
2019-04-22T18:36:01.782Z,10.50
2019-04-22T18:38:39.618Z,10.40
2019-04-22T18:41:15.124Z,10.30
2019-04-22T18:43:48.824Z,10.20
2019-04-22T18:46:15.682Z,10.10
2019-04-22T18:48:46.128Z,10.00
2019-04-22T18:51:26.194Z,9.90
2019-04-22T18:54:06.193Z,9.80
2019-04-22T18:56:43.774Z,9.70
2019-04-22T18:59:09.620Z,9.60
2019-04-22T19:01:29.998Z,9.60
2019-04-22T19:04:10.519Z,9.50
2019-04-22T19:06:50.228Z,9.40
2019-04-22T19:09:23.858Z,9.30
2019-04-22T19:12:03.143Z,9.20
2019-04-22T19:14:24.193Z,9.20
2019-04-22T19:16:54.366Z,9.20
2019-04-22T19:21:55.424Z,9.00
2019-04-22T19:24:21.232Z,9.00
2019-04-22T19:26:57.657Z,9.00
2019-04-22T19:29:25.691Z,8.90
2019-04-22T19:31:51.333Z,8.90
2019-04-22T19:34:20.903Z,8.80
2019-04-22T19:36:59.338Z,8.80
2019-04-22T19:39:22.770Z,8.80
2019-04-22T19:42:06.844Z,8.70
2019-04-22T19:44:33.305Z,8.70
2019-04-22T19:47:14.332Z,8.60
2019-04-22T19:49:39.503Z,8.60
2019-04-22T19:52:05.884Z,8.50
2019-04-22T19:54:31.808Z,8.50
2019-04-22T19:56:52.928Z,8.50
2019-04-22T19:59:23.881Z,8.40
2019-04-22T20:02:00.919Z,8.40
2019-04-22T20:04:43.033Z,8.40
2019-04-22T20:07:11.327Z,8.40
2019-04-22T20:09:43.800Z,8.40
2019-04-22T20:12:04.306Z,8.40
2019-04-22T20:14:41.851Z,8.40
2019-04-22T20:17:11.436Z,8.40
2019-04-22T20:19:46.311Z,8.40
2019-04-22T20:22:09.057Z,8.40
2019-04-22T20:24:28.147Z,8.40
2019-04-22T20:27:18.932Z,8.40
2019-04-22T20:29:51.482Z,8.40
2019-04-22T20:32:20.366Z,8.40
2019-04-22T20:34:55.227Z,8.40
2019-04-22T20:37:28.561Z,8.40
2019-04-22T20:39:46.893Z,8.30
2019-04-22T20:42:33.630Z,8.30
2019-04-22T20:44:51.751Z,8.30
2019-04-22T20:47:13.594Z,8.30
2019-04-22T20:49:47.485Z,8.30
2019-04-22T20:52:26.674Z,8.30
2019-04-22T20:54:45.349Z,8.30
2019-04-22T20:57:17.221Z,8.20
2019-04-22T20:59:48.463Z,8.30
2019-04-22T21:02:15.397Z,8.20
2019-04-22T21:04:41.459Z,8.20
2019-04-22T21:07:16.726Z,8.20
2019-04-22T21:09:52.351Z,8.10
2019-04-22T21:12:13.723Z,8.20
2019-04-22T21:14:55.149Z,8.20
2019-04-22T21:17:25.363Z,8.10
2019-04-22T21:20:07.213Z,8.20
2019-04-22T21:22:22.193Z,8.10
2019-04-22T21:24:49.374Z,8.10
2019-04-22T21:27:42.364Z,8.10
2019-04-22T21:29:48.334Z,8.10
2019-04-22T21:32:28.203Z,8.10
2019-04-22T21:35:03.867Z,8.10
2019-04-22T21:37:25.072Z,8.10
2019-04-22T21:39:47.945Z,8.10
2019-04-22T21:42:18.553Z,8.10
2019-04-22T21:44:48.043Z,8.00
2019-04-22T21:47:33.107Z,8.00
2019-04-22T21:50:07.883Z,8.00
2019-04-22T21:52:27.787Z,8.00
2019-04-22T21:54:59.064Z,8.00
2019-04-22T21:57:28.249Z,8.00
2019-04-22T21:59:58.167Z,8.00
2019-04-22T22:02:37.605Z,8.00
2019-04-22T22:04:52.479Z,8.00
2019-04-22T22:07:14.474Z,8.00
2019-04-22T22:09:59.748Z,7.90
2019-04-22T22:12:33.687Z,7.90
2019-04-22T22:15:04.125Z,7.90
2019-04-22T22:17:28.520Z,7.90
2019-04-22T22:20:01.965Z,7.90
2019-04-22T22:22:48.341Z,7.90
2019-04-22T22:25:01.451Z,7.90
2019-04-22T22:27:30.183Z,7.90
2019-04-22T22:30:20.031Z,7.90
2019-04-22T22:32:35.367Z,7.90
2019-04-22T22:35:03.757Z,7.90
2019-04-22T22:37:21.847Z,7.90
2019-04-22T22:39:52.287Z,7.90
2019-04-22T22:42:22.493Z,7.90
2019-04-22T22:44:46.752Z,7.90
2019-04-22T22:47:30.290Z,7.90
2019-04-22T22:50:03.261Z,7.90
2019-04-22T22:55:05.791Z,7.90
2019-04-22T23:00:03.890Z,7.90
2019-04-22T23:02:36.786Z,7.90
2019-04-22T23:05:06.825Z,7.90
2019-04-22T23:07:37.432Z,7.90
2019-04-22T23:10:09.591Z,7.90
2019-04-22T23:12:40.856Z,7.90
2019-04-22T23:15:06.185Z,7.90
2019-04-22T23:17:23.586Z,7.90
2019-04-22T23:19:51.653Z,7.80
2019-04-22T23:22:22.949Z,7.80
2019-04-22T23:25:08.047Z,7.80
2019-04-22T23:27:34.568Z,7.80
2019-04-22T23:30:01.725Z,7.80
2019-04-22T23:32:31.981Z,7.70
2019-04-22T23:35:13.248Z,7.70
2019-04-22T23:37:44.867Z,7.70
2019-04-22T23:40:24.444Z,7.70
2019-04-22T23:42:44.515Z,7.80
2019-04-22T23:45:13.899Z,7.80
2019-04-22T23:47:38.110Z,7.80
2019-04-22T23:50:14.232Z,7.80
2019-04-22T23:52:53.081Z,7.80
2019-04-22T23:55:26.184Z,7.80
2019-04-22T23:57:56.977Z,7.80
